sensor_id;sensor_type;location;lat;lon;timestamp;temperature;humidity
24426;DHT22;12611;44.446;26.000;2023-06-04T00:01:06;20.90;55.40
24426;DHT22;12611;44.446;26.000;2023-06-04T00:03:42;20.90;55.30
24426;DHT22;12611;44.446;26.000;2023-06-04T00:06:13;20.90;55.30
24426;DHT22;12611;44.446;26.000;2023-06-04T00:08:41;20.90;55.50
24426;DHT22;12611;44.446;26.000;2023-06-04T00:11:09;20.90;55.70
24426;DHT22;12611;44.446;26.000;2023-06-04T00:13:38;20.90;55.70
24426;DHT22;12611;44.446;26.000;2023-06-04T00:16:06;20.90;55.50
24426;DHT22;12611;44.446;26.000;2023-06-04T00:18:35;20.90;55.30
24426;DHT22;12611;44.446;26.000;2023-06-04T00:21:03;20.90;55.20
24426;DHT22;12611;44.446;26.000;2023-06-04T00:23:33;20.90;55.30
24426;DHT22;12611;44.446;26.000;2023-06-04T00:26:03;20.90;55.30
24426;DHT22;12611;44.446;26.000;2023-06-04T00:28:31;20.90;55.40
24426;DHT22;12611;44.446;26.000;2023-06-04T00:30:59;20.80;55.20
24426;DHT22;12611;44.446;26.000;2023-06-04T00:33:28;20.70;55.10
24426;DHT22;12611;44.446;26.000;2023-06-04T00:35:56;20.70;55.20
24426;DHT22;12611;44.446;26.000;2023-06-04T00:38:25;20.70;55.40
24426;DHT22;12611;44.446;26.000;2023-06-04T00:40:55;20.70;55.20
24426;DHT22;12611;44.446;26.000;2023-06-04T00:43:23;20.70;55.40
24426;DHT22;12611;44.446;26.000;2023-06-04T00:45:54;20.70;55.40
24426;DHT22;12611;44.446;26.000;2023-06-04T00:48:24;20.60;55.40
24426;DHT22;12611;44.446;26.000;2023-06-04T00:50:54;20.60;55.70
24426;DHT22;12611;44.446;26.000;2023-06-04T00:53:24;20.60;55.90
24426;DHT22;12611;44.446;26.000;2023-06-04T00:55:52;20.60;55.80
24426;DHT22;12611;44.446;26.000;2023-06-04T00:58:22;20.60;55.90
24426;DHT22;12611;44.446;26.000;2023-06-04T01:00:52;20.60;56.00
24426;DHT22;12611;44.446;26.000;2023-06-04T01:03:25;20.50;56.10
24426;DHT22;12611;44.446;26.000;2023-06-04T01:06:04;20.60;56.30
24426;DHT22;12611;44.446;26.000;2023-06-04T01:08:36;20.50;56.20
24426;DHT22;12611;44.446;26.000;2023-06-04T01:11:05;20.40;56.00
24426;DHT22;12611;44.446;26.000;2023-06-04T01:13:35;20.50;56.20
24426;DHT22;12611;44.446;26.000;2023-06-04T01:16:03;20.40;56.10
24426;DHT22;12611;44.446;26.000;2023-06-04T01:18:34;20.40;56.30
24426;DHT22;12611;44.446;26.000;2023-06-04T01:21:06;20.40;56.30
24426;DHT22;12611;44.446;26.000;2023-06-04T01:23:47;20.40;56.00
24426;DHT22;12611;44.446;26.000;2023-06-04T01:26:26;20.30;56.10
24426;DHT22;12611;44.446;26.000;2023-06-04T01:28:57;20.40;56.20
24426;DHT22;12611;44.446;26.000;2023-06-04T01:31:27;20.40;56.00
24426;DHT22;12611;44.446;26.000;2023-06-04T01:33:59;20.30;55.90
24426;DHT22;12611;44.446;26.000;2023-06-04T01:36:28;20.30;55.90
24426;DHT22;12611;44.446;26.000;2023-06-04T01:38:57;20.30;55.90
24426;DHT22;12611;44.446;26.000;2023-06-04T01:41:27;20.30;56.00
24426;DHT22;12611;44.446;26.000;2023-06-04T01:43:57;20.30;56.10
24426;DHT22;12611;44.446;26.000;2023-06-04T01:46:25;20.40;56.10
24426;DHT22;12611;44.446;26.000;2023-06-04T01:48:54;20.40;55.90
24426;DHT22;12611;44.446;26.000;2023-06-04T01:51:22;20.40;55.60
24426;DHT22;12611;44.446;26.000;2023-06-04T01:53:50;20.30;55.30
24426;DHT22;12611;44.446;26.000;2023-06-04T01:56:19;20.40;55.40
24426;DHT22;12611;44.446;26.000;2023-06-04T01:58:48;20.30;55.20
24426;DHT22;12611;44.446;26.000;2023-06-04T02:01:17;20.30;54.90
24426;DHT22;12611;44.446;26.000;2023-06-04T02:03:46;20.30;55.00
24426;DHT22;12611;44.446;26.000;2023-06-04T02:06:15;20.40;55.10
24426;DHT22;12611;44.446;26.000;2023-06-04T02:08:43;20.40;55.10
24426;DHT22;12611;44.446;26.000;2023-06-04T02:11:12;20.30;54.40
24426;DHT22;12611;44.446;26.000;2023-06-04T02:13:40;20.30;54.90
24426;DHT22;12611;44.446;26.000;2023-06-04T02:16:09;20.20;54.60
24426;DHT22;12611;44.446;26.000;2023-06-04T02:18:39;20.20;54.20
24426;DHT22;12611;44.446;26.000;2023-06-04T02:21:08;20.30;54.50
24426;DHT22;12611;44.446;26.000;2023-06-04T02:23:36;20.20;54.30
24426;DHT22;12611;44.446;26.000;2023-06-04T02:26:05;20.20;54.30
24426;DHT22;12611;44.446;26.000;2023-06-04T02:28:33;20.30;54.50
24426;DHT22;12611;44.446;26.000;2023-06-04T02:31:01;20.30;54.60
24426;DHT22;12611;44.446;26.000;2023-06-04T02:33:30;20.30;54.60
24426;DHT22;12611;44.446;26.000;2023-06-04T02:36:00;20.30;54.40
24426;DHT22;12611;44.446;26.000;2023-06-04T02:38:29;20.20;54.30
24426;DHT22;12611;44.446;26.000;2023-06-04T02:40:57;20.20;54.30
24426;DHT22;12611;44.446;26.000;2023-06-04T02:43:25;20.20;54.00
24426;DHT22;12611;44.446;26.000;2023-06-04T02:45:54;20.30;54.20
24426;DHT22;12611;44.446;26.000;2023-06-04T02:48:22;20.20;53.80
24426;DHT22;12611;44.446;26.000;2023-06-04T02:50:51;20.20;54.10
24426;DHT22;12611;44.446;26.000;2023-06-04T02:53:20;20.20;54.20
24426;DHT22;12611;44.446;26.000;2023-06-04T02:55:50;20.20;54.10
24426;DHT22;12611;44.446;26.000;2023-06-04T02:58:19;20.20;53.90
24426;DHT22;12611;44.446;26.000;2023-06-04T03:00:48;20.10;53.80
24426;DHT22;12611;44.446;26.000;2023-06-04T03:03:17;20.20;54.00
24426;DHT22;12611;44.446;26.000;2023-06-04T03:05:45;20.20;54.00
24426;DHT22;12611;44.446;26.000;2023-06-04T03:08:13;20.20;53.90
24426;DHT22;12611;44.446;26.000;2023-06-04T03:10:43;20.20;53.90
24426;DHT22;12611;44.446;26.000;2023-06-04T03:13:12;20.20;54.10
24426;DHT22;12611;44.446;26.000;2023-06-04T03:15:40;20.20;53.90
24426;DHT22;12611;44.446;26.000;2023-06-04T03:18:09;20.20;53.80
24426;DHT22;12611;44.446;26.000;2023-06-04T03:20:38;20.10;53.70
24426;DHT22;12611;44.446;26.000;2023-06-04T03:23:06;20.10;53.70
24426;DHT22;12611;44.446;26.000;2023-06-04T03:25:35;20.00;53.80
24426;DHT22;12611;44.446;26.000;2023-06-04T03:28:05;20.00;53.80
24426;DHT22;12611;44.446;26.000;2023-06-04T03:30:33;20.00;54.20
24426;DHT22;12611;44.446;26.000;2023-06-04T03:33:01;20.00;54.20
24426;DHT22;12611;44.446;26.000;2023-06-04T03:35:30;19.90;53.90
24426;DHT22;12611;44.446;26.000;2023-06-04T03:37:58;19.90;54.10
24426;DHT22;12611;44.446;26.000;2023-06-04T03:40:27;19.90;53.90
24426;DHT22;12611;44.446;26.000;2023-06-04T03:42:55;19.90;54.00
24426;DHT22;12611;44.446;26.000;2023-06-04T03:45:25;20.00;54.30
24426;DHT22;12611;44.446;26.000;2023-06-04T03:47:53;19.90;54.00
24426;DHT22;12611;44.446;26.000;2023-06-04T03:50:22;19.90;54.10
24426;DHT22;12611;44.446;26.000;2023-06-04T03:52:50;19.90;54.30
24426;DHT22;12611;44.446;26.000;2023-06-04T03:55:19;19.90;54.40
24426;DHT22;12611;44.446;26.000;2023-06-04T03:57:47;19.90;54.40
24426;DHT22;12611;44.446;26.000;2023-06-04T04:00:16;19.90;54.60
24426;DHT22;12611;44.446;26.000;2023-06-04T04:02:46;20.00;55.00
24426;DHT22;12611;44.446;26.000;2023-06-04T04:05:14;19.90;54.60
24426;DHT22;12611;44.446;26.000;2023-06-04T04:07:43;19.90;54.70
24426;DHT22;12611;44.446;26.000;2023-06-04T04:10:12;19.90;54.70
24426;DHT22;12611;44.446;26.000;2023-06-04T04:12:41;19.90;54.80
24426;DHT22;12611;44.446;26.000;2023-06-04T04:15:10;19.90;55.00
24426;DHT22;12611;44.446;26.000;2023-06-04T04:17:38;19.90;55.10
24426;DHT22;12611;44.446;26.000;2023-06-04T04:20:09;19.90;55.00
24426;DHT22;12611;44.446;26.000;2023-06-04T04:22:40;19.80;55.20
24426;DHT22;12611;44.446;26.000;2023-06-04T04:25:09;19.90;55.30
24426;DHT22;12611;44.446;26.000;2023-06-04T04:27:37;19.90;55.30
24426;DHT22;12611;44.446;26.000;2023-06-04T04:30:08;19.90;55.20
24426;DHT22;12611;44.446;26.000;2023-06-04T04:32:37;19.90;55.10
24426;DHT22;12611;44.446;26.000;2023-06-04T04:35:08;19.90;55.40
24426;DHT22;12611;44.446;26.000;2023-06-04T04:37:36;19.90;55.40
24426;DHT22;12611;44.446;26.000;2023-06-04T04:40:07;19.90;55.50
24426;DHT22;12611;44.446;26.000;2023-06-04T04:42:38;19.90;55.30
24426;DHT22;12611;44.446;26.000;2023-06-04T04:45:09;20.00;55.50
24426;DHT22;12611;44.446;26.000;2023-06-04T04:47:38;19.90;55.40
24426;DHT22;12611;44.446;26.000;2023-06-04T04:50:08;19.90;55.20
24426;DHT22;12611;44.446;26.000;2023-06-04T04:52:36;19.90;56.10
24426;DHT22;12611;44.446;26.000;2023-06-04T04:55:05;19.90;55.30
24426;DHT22;12611;44.446;26.000;2023-06-04T04:57:34;19.80;55.40
24426;DHT22;12611;44.446;26.000;2023-06-04T05:00:02;19.90;55.70
24426;DHT22;12611;44.446;26.000;2023-06-04T05:02:32;19.90;55.80
24426;DHT22;12611;44.446;26.000;2023-06-04T05:05:00;19.90;55.90
24426;DHT22;12611;44.446;26.000;2023-06-04T05:07:30;19.90;55.70
24426;DHT22;12611;44.446;26.000;2023-06-04T05:09:58;20.00;55.90
24426;DHT22;12611;44.446;26.000;2023-06-04T05:12:29;19.90;55.20
24426;DHT22;12611;44.446;26.000;2023-06-04T05:14:58;19.90;55.40
24426;DHT22;12611;44.446;26.000;2023-06-04T05:17:26;19.90;55.50
24426;DHT22;12611;44.446;26.000;2023-06-04T05:19:57;19.90;55.60
24426;DHT22;12611;44.446;26.000;2023-06-04T05:22:40;19.90;55.60
24426;DHT22;12611;44.446;26.000;2023-06-04T05:25:09;19.90;55.50
24426;DHT22;12611;44.446;26.000;2023-06-04T05:27:39;20.00;55.70
24426;DHT22;12611;44.446;26.000;2023-06-04T05:30:08;20.00;55.70
24426;DHT22;12611;44.446;26.000;2023-06-04T05:32:36;20.00;55.60
24426;DHT22;12611;44.446;26.000;2023-06-04T05:35:08;20.00;55.80
24426;DHT22;12611;44.446;26.000;2023-06-04T05:37:39;20.10;56.00
24426;DHT22;12611;44.446;26.000;2023-06-04T05:40:11;20.10;55.90
24426;DHT22;12611;44.446;26.000;2023-06-04T05:42:40;20.20;55.90
24426;DHT22;12611;44.446;26.000;2023-06-04T05:45:09;20.30;56.40
24426;DHT22;12611;44.446;26.000;2023-06-04T05:47:38;20.40;56.10
24426;DHT22;12611;44.446;26.000;2023-06-04T05:50:07;20.50;56.20
24426;DHT22;12611;44.446;26.000;2023-06-04T05:52:36;20.60;56.40
24426;DHT22;12611;44.446;26.000;2023-06-04T05:55:05;20.70;56.50
24426;DHT22;12611;44.446;26.000;2023-06-04T05:57:36;20.70;56.10
24426;DHT22;12611;44.446;26.000;2023-06-04T06:00:05;20.70;56.00
24426;DHT22;12611;44.446;26.000;2023-06-04T06:02:37;20.80;56.30
24426;DHT22;12611;44.446;26.000;2023-06-04T06:05:07;20.80;56.50
24426;DHT22;12611;44.446;26.000;2023-06-04T06:07:35;20.90;56.40
24426;DHT22;12611;44.446;26.000;2023-06-04T06:10:05;21.00;56.30
24426;DHT22;12611;44.446;26.000;2023-06-04T06:12:33;21.00;56.40
24426;DHT22;12611;44.446;26.000;2023-06-04T06:15:04;21.10;56.40
24426;DHT22;12611;44.446;26.000;2023-06-04T06:17:33;21.20;56.50
24426;DHT22;12611;44.446;26.000;2023-06-04T06:20:02;21.30;56.20
24426;DHT22;12611;44.446;26.000;2023-06-04T06:22:33;21.30;56.20
24426;DHT22;12611;44.446;26.000;2023-06-04T06:25:02;21.40;56.40
24426;DHT22;12611;44.446;26.000;2023-06-04T06:27:32;21.40;56.40
24426;DHT22;12611;44.446;26.000;2023-06-04T06:30:00;21.40;56.30
24426;DHT22;12611;44.446;26.000;2023-06-04T06:32:30;21.50;56.20
24426;DHT22;12611;44.446;26.000;2023-06-04T06:34:58;21.60;56.40
24426;DHT22;12611;44.446;26.000;2023-06-04T06:37:27;21.60;56.30
24426;DHT22;12611;44.446;26.000;2023-06-04T06:39:56;21.70;56.40
24426;DHT22;12611;44.446;26.000;2023-06-04T06:42:24;21.70;56.50
24426;DHT22;12611;44.446;26.000;2023-06-04T06:44:52;21.80;56.50
24426;DHT22;12611;44.446;26.000;2023-06-04T06:47:21;21.80;56.60
24426;DHT22;12611;44.446;26.000;2023-06-04T06:49:51;21.90;56.40
24426;DHT22;12611;44.446;26.000;2023-06-04T06:52:20;21.90;56.30
24426;DHT22;12611;44.446;26.000;2023-06-04T06:54:48;22.00;56.00
24426;DHT22;12611;44.446;26.000;2023-06-04T06:57:17;22.00;55.90
24426;DHT22;12611;44.446;26.000;2023-06-04T06:59:45;22.00;55.80
24426;DHT22;12611;44.446;26.000;2023-06-04T07:02:13;22.10;55.70
24426;DHT22;12611;44.446;26.000;2023-06-04T07:04:42;22.20;55.70
24426;DHT22;12611;44.446;26.000;2023-06-04T07:07:12;22.30;55.80
24426;DHT22;12611;44.446;26.000;2023-06-04T07:09:43;22.30;55.90
24426;DHT22;12611;44.446;26.000;2023-06-04T07:12:12;22.40;55.40
24426;DHT22;12611;44.446;26.000;2023-06-04T07:14:41;22.40;55.50
24426;DHT22;12611;44.446;26.000;2023-06-04T07:17:10;22.50;55.30
24426;DHT22;12611;44.446;26.000;2023-06-04T07:19:38;22.70;55.50
24426;DHT22;12611;44.446;26.000;2023-06-04T07:22:07;22.80;55.20
24426;DHT22;12611;44.446;26.000;2023-06-04T07:24:36;22.90;55.20
24426;DHT22;12611;44.446;26.000;2023-06-04T07:27:10;23.00;54.80
24426;DHT22;12611;44.446;26.000;2023-06-04T07:29:39;23.10;54.60
24426;DHT22;12611;44.446;26.000;2023-06-04T07:32:08;23.10;52.60
24426;DHT22;12611;44.446;26.000;2023-06-04T07:34:37;23.20;53.10
24426;DHT22;12611;44.446;26.000;2023-06-04T07:37:06;23.30;53.10
24426;DHT22;12611;44.446;26.000;2023-06-04T07:39:38;23.40;53.10
24426;DHT22;12611;44.446;26.000;2023-06-04T07:42:07;23.50;53.40
24426;DHT22;12611;44.446;26.000;2023-06-04T07:44:37;23.50;52.70
24426;DHT22;12611;44.446;26.000;2023-06-04T07:47:05;23.70;53.00
24426;DHT22;12611;44.446;26.000;2023-06-04T07:49:34;23.70;52.50
24426;DHT22;12611;44.446;26.000;2023-06-04T07:52:16;23.80;50.90
24426;DHT22;12611;44.446;26.000;2023-06-04T07:54:46;23.90;51.50
24426;DHT22;12611;44.446;26.000;2023-06-04T07:57:15;24.00;50.10
24426;DHT22;12611;44.446;26.000;2023-06-04T07:59:43;24.00;48.70
24426;DHT22;12611;44.446;26.000;2023-06-04T08:02:12;24.10;49.70
24426;DHT22;12611;44.446;26.000;2023-06-04T08:04:42;24.30;49.70
24426;DHT22;12611;44.446;26.000;2023-06-04T08:07:10;24.30;48.90
24426;DHT22;12611;44.446;26.000;2023-06-04T08:09:39;24.40;47.90
24426;DHT22;12611;44.446;26.000;2023-06-04T08:12:08;24.60;48.60
24426;DHT22;12611;44.446;26.000;2023-06-04T08:14:37;24.60;48.40
24426;DHT22;12611;44.446;26.000;2023-06-04T08:17:05;24.70;48.80
24426;DHT22;12611;44.446;26.000;2023-06-04T08:19:34;24.70;48.50
24426;DHT22;12611;44.446;26.000;2023-06-04T08:22:04;24.70;48.20
24426;DHT22;12611;44.446;26.000;2023-06-04T08:24:33;24.60;47.50
24426;DHT22;12611;44.446;26.000;2023-06-04T08:27:01;24.70;47.90
24426;DHT22;12611;44.446;26.000;2023-06-04T08:29:31;24.70;47.40
24426;DHT22;12611;44.446;26.000;2023-06-04T08:31:59;24.80;47.80
24426;DHT22;12611;44.446;26.000;2023-06-04T08:34:28;24.80;47.80
24426;DHT22;12611;44.446;26.000;2023-06-04T08:36:57;24.80;47.60
24426;DHT22;12611;44.446;26.000;2023-06-04T08:39:25;24.90;47.80
24426;DHT22;12611;44.446;26.000;2023-06-04T08:41:59;24.90;47.20
24426;DHT22;12611;44.446;26.000;2023-06-04T08:44:31;24.90;47.30
24426;DHT22;12611;44.446;26.000;2023-06-04T08:47:02;25.00;47.70
24426;DHT22;12611;44.446;26.000;2023-06-04T08:49:34;25.00;47.60
24426;DHT22;12611;44.446;26.000;2023-06-04T08:52:03;24.90;46.10
24426;DHT22;12611;44.446;26.000;2023-06-04T08:54:33;25.00;46.20
24426;DHT22;12611;44.446;26.000;2023-06-04T08:57:01;25.00;46.20
24426;DHT22;12611;44.446;26.000;2023-06-04T08:59:32;25.00;45.60
24426;DHT22;12611;44.446;26.000;2023-06-04T09:02:01;25.10;46.00
24426;DHT22;12611;44.446;26.000;2023-06-04T09:04:31;25.20;45.50
24426;DHT22;12611;44.446;26.000;2023-06-04T09:07:01;25.10;44.40
24426;DHT22;12611;44.446;26.000;2023-06-04T09:09:31;25.10;44.40
24426;DHT22;12611;44.446;26.000;2023-06-04T09:12:01;25.20;44.80
24426;DHT22;12611;44.446;26.000;2023-06-04T09:14:33;25.20;44.40
24426;DHT22;12611;44.446;26.000;2023-06-04T09:17:01;25.30;44.50
24426;DHT22;12611;44.446;26.000;2023-06-04T09:19:29;25.30;43.60
24426;DHT22;12611;44.446;26.000;2023-06-04T09:21:59;25.20;43.40
24426;DHT22;12611;44.446;26.000;2023-06-04T09:24:39;25.30;43.30
24426;DHT22;12611;44.446;26.000;2023-06-04T09:27:11;25.40;44.10
24426;DHT22;12611;44.446;26.000;2023-06-04T09:29:49;25.50;44.30
24426;DHT22;12611;44.446;26.000;2023-06-04T09:32:21;25.50;43.80
24426;DHT22;12611;44.446;26.000;2023-06-04T09:34:50;25.60;43.30
24426;DHT22;12611;44.446;26.000;2023-06-04T09:37:20;25.60;43.10
24426;DHT22;12611;44.446;26.000;2023-06-04T09:39:53;25.70;43.10
24426;DHT22;12611;44.446;26.000;2023-06-04T09:42:22;25.80;43.30
24426;DHT22;12611;44.446;26.000;2023-06-04T09:44:52;25.80;43.20
24426;DHT22;12611;44.446;26.000;2023-06-04T09:47:20;25.80;43.30
24426;DHT22;12611;44.446;26.000;2023-06-04T09:49:49;25.90;43.10
24426;DHT22;12611;44.446;26.000;2023-06-04T09:52:19;25.90;43.30
24426;DHT22;12611;44.446;26.000;2023-06-04T09:54:48;25.80;42.30
24426;DHT22;12611;44.446;26.000;2023-06-04T09:57:18;25.80;42.50
24426;DHT22;12611;44.446;26.000;2023-06-04T09:59:49;25.80;42.80
24426;DHT22;12611;44.446;26.000;2023-06-04T10:02:20;25.90;43.40
24426;DHT22;12611;44.446;26.000;2023-06-04T10:04:52;25.90;43.40
24426;DHT22;12611;44.446;26.000;2023-06-04T10:07:22;26.00;43.80
24426;DHT22;12611;44.446;26.000;2023-06-04T10:09:52;25.90;43.30
24426;DHT22;12611;44.446;26.000;2023-06-04T10:12:26;25.90;43.00
24426;DHT22;12611;44.446;26.000;2023-06-04T10:14:56;25.90;43.10
24426;DHT22;12611;44.446;26.000;2023-06-04T10:17:28;25.90;43.30
24426;DHT22;12611;44.446;26.000;2023-06-04T10:19:58;26.00;43.90
24426;DHT22;12611;44.446;26.000;2023-06-04T10:22:28;26.00;44.10
24426;DHT22;12611;44.446;26.000;2023-06-04T10:24:58;26.10;44.30
24426;DHT22;12611;44.446;26.000;2023-06-04T10:27:27;26.10;44.20
24426;DHT22;12611;44.446;26.000;2023-06-04T10:29:56;26.10;44.10
24426;DHT22;12611;44.446;26.000;2023-06-04T10:32:28;26.20;44.50
24426;DHT22;12611;44.446;26.000;2023-06-04T10:34:57;26.20;44.40
24426;DHT22;12611;44.446;26.000;2023-06-04T10:37:26;26.30;44.50
24426;DHT22;12611;44.446;26.000;2023-06-04T10:39:57;26.30;44.00
24426;DHT22;12611;44.446;26.000;2023-06-04T10:42:26;26.20;43.20
24426;DHT22;12611;44.446;26.000;2023-06-04T10:44:55;26.30;43.90
24426;DHT22;12611;44.446;26.000;2023-06-04T10:47:26;26.30;43.80
24426;DHT22;12611;44.446;26.000;2023-06-04T10:50:08;26.30;43.40
24426;DHT22;12611;44.446;26.000;2023-06-04T10:52:36;26.40;44.00
24426;DHT22;12611;44.446;26.000;2023-06-04T10:55:06;26.50;44.40
24426;DHT22;12611;44.446;26.000;2023-06-04T10:57:35;26.50;44.30
24426;DHT22;12611;44.446;26.000;2023-06-04T11:00:06;26.60;44.30
24426;DHT22;12611;44.446;26.000;2023-06-04T11:02:48;26.60;44.30
24426;DHT22;12611;44.446;26.000;2023-06-04T11:05:19;26.60;43.10
24426;DHT22;12611;44.446;26.000;2023-06-04T11:07:48;26.70;43.60
24426;DHT22;12611;44.446;26.000;2023-06-04T11:10:17;26.70;43.30
24426;DHT22;12611;44.446;26.000;2023-06-04T11:12:46;26.60;42.90
24426;DHT22;12611;44.446;26.000;2023-06-04T11:15:17;26.70;43.20
24426;DHT22;12611;44.446;26.000;2023-06-04T11:17:52;26.70;43.20
24426;DHT22;12611;44.446;26.000;2023-06-04T11:20:23;26.70;43.40
24426;DHT22;12611;44.446;26.000;2023-06-04T11:22:53;26.80;43.40
24426;DHT22;12611;44.446;26.000;2023-06-04T11:25:23;26.90;43.30
24426;DHT22;12611;44.446;26.000;2023-06-04T11:27:53;26.90;43.00
24426;DHT22;12611;44.446;26.000;2023-06-04T11:30:22;26.80;42.60
24426;DHT22;12611;44.446;26.000;2023-06-04T11:33:00;26.80;42.20
24426;DHT22;12611;44.446;26.000;2023-06-04T11:35:30;26.90;42.90
24426;DHT22;12611;44.446;26.000;2023-06-04T11:37:59;27.00;43.20
24426;DHT22;12611;44.446;26.000;2023-06-04T11:40:27;27.10;43.40
24426;DHT22;12611;44.446;26.000;2023-06-04T11:42:55;27.10;42.90
24426;DHT22;12611;44.446;26.000;2023-06-04T11:45:24;27.20;43.20
24426;DHT22;12611;44.446;26.000;2023-06-04T11:47:54;27.20;43.50
24426;DHT22;12611;44.446;26.000;2023-06-04T11:50:26;27.10;43.50
24426;DHT22;12611;44.446;26.000;2023-06-04T11:52:56;27.20;43.60
24426;DHT22;12611;44.446;26.000;2023-06-04T11:55:25;27.20;43.60
24426;DHT22;12611;44.446;26.000;2023-06-04T11:57:54;27.10;42.80
24426;DHT22;12611;44.446;26.000;2023-06-04T12:00:22;27.10;43.00
24426;DHT22;12611;44.446;26.000;2023-06-04T12:02:53;27.20;43.10
24426;DHT22;12611;44.446;26.000;2023-06-04T12:05:23;27.40;43.50
24426;DHT22;12611;44.446;26.000;2023-06-04T12:07:52;27.40;43.40
24426;DHT22;12611;44.446;26.000;2023-06-04T12:10:22;27.50;43.60
24426;DHT22;12611;44.446;26.000;2023-06-04T12:12:54;27.50;43.70
24426;DHT22;12611;44.446;26.000;2023-06-04T12:15:23;27.60;43.70
24426;DHT22;12611;44.446;26.000;2023-06-04T12:17:52;27.60;43.50
24426;DHT22;12611;44.446;26.000;2023-06-04T12:20:32;27.60;42.80
24426;DHT22;12611;44.446;26.000;2023-06-04T12:23:01;27.70;43.30
24426;DHT22;12611;44.446;26.000;2023-06-04T12:25:32;27.70;43.40
24426;DHT22;12611;44.446;26.000;2023-06-04T12:28:01;27.80;43.60
24426;DHT22;12611;44.446;26.000;2023-06-04T12:30:39;27.80;43.10
24426;DHT22;12611;44.446;26.000;2023-06-04T12:33:10;27.80;43.10
24426;DHT22;12611;44.446;26.000;2023-06-04T12:35:38;27.90;43.50
24426;DHT22;12611;44.446;26.000;2023-06-04T12:38:07;27.90;43.20
24426;DHT22;12611;44.446;26.000;2023-06-04T12:40:37;27.90;43.10
24426;DHT22;12611;44.446;26.000;2023-06-04T12:43:07;27.90;42.90
24426;DHT22;12611;44.446;26.000;2023-06-04T12:45:35;28.00;43.20
24426;DHT22;12611;44.446;26.000;2023-06-04T12:48:04;28.00;43.00
24426;DHT22;12611;44.446;26.000;2023-06-04T12:50:33;28.00;43.00
24426;DHT22;12611;44.446;26.000;2023-06-04T12:53:02;28.00;43.00
24426;DHT22;12611;44.446;26.000;2023-06-04T12:55:30;27.90;42.40
24426;DHT22;12611;44.446;26.000;2023-06-04T12:58:00;27.90;42.70
24426;DHT22;12611;44.446;26.000;2023-06-04T13:00:28;27.90;42.60
24426;DHT22;12611;44.446;26.000;2023-06-04T13:02:57;27.80;42.60
24426;DHT22;12611;44.446;26.000;2023-06-04T13:05:26;27.80;42.80
24426;DHT22;12611;44.446;26.000;2023-06-04T13:07:54;27.90;43.20
24426;DHT22;12611;44.446;26.000;2023-06-04T13:10:23;27.80;43.30
24426;DHT22;12611;44.446;26.000;2023-06-04T13:12:52;27.90;43.00
24426;DHT22;12611;44.446;26.000;2023-06-04T13:15:21;27.80;42.70
24426;DHT22;12611;44.446;26.000;2023-06-04T13:17:50;28.00;43.00
24426;DHT22;12611;44.446;26.000;2023-06-04T13:20:18;28.20;42.90
24426;DHT22;12611;44.446;26.000;2023-06-04T13:22:47;28.20;43.00
24426;DHT22;12611;44.446;26.000;2023-06-04T13:25:15;28.20;42.90
24426;DHT22;12611;44.446;26.000;2023-06-04T13:27:44;28.10;42.80
24426;DHT22;12611;44.446;26.000;2023-06-04T13:30:13;28.00;42.50
24426;DHT22;12611;44.446;26.000;2023-06-04T13:32:43;28.10;42.60
24426;DHT22;12611;44.446;26.000;2023-06-04T13:35:11;28.00;42.40
24426;DHT22;12611;44.446;26.000;2023-06-04T13:37:40;27.90;42.30
24426;DHT22;12611;44.446;26.000;2023-06-04T13:40:09;28.10;42.60
24426;DHT22;12611;44.446;26.000;2023-06-04T13:42:37;28.00;42.70
24426;DHT22;12611;44.446;26.000;2023-06-04T13:45:06;28.10;42.70
24426;DHT22;12611;44.446;26.000;2023-06-04T13:47:35;28.10;42.60
24426;DHT22;12611;44.446;26.000;2023-06-04T13:50:05;28.00;42.40
24426;DHT22;12611;44.446;26.000;2023-06-04T13:52:34;28.10;42.70
24426;DHT22;12611;44.446;26.000;2023-06-04T13:55:03;28.00;42.70
24426;DHT22;12611;44.446;26.000;2023-06-04T13:57:31;27.90;42.50
24426;DHT22;12611;44.446;26.000;2023-06-04T13:59:59;27.90;42.70
24426;DHT22;12611;44.446;26.000;2023-06-04T14:02:28;27.90;42.80
24426;DHT22;12611;44.446;26.000;2023-06-04T14:04:56;28.00;42.80
24426;DHT22;12611;44.446;26.000;2023-06-04T14:07:26;27.90;43.00
24426;DHT22;12611;44.446;26.000;2023-06-04T14:09:54;28.00;43.20
24426;DHT22;12611;44.446;26.000;2023-06-04T14:12:23;28.00;44.10
24426;DHT22;12611;44.446;26.000;2023-06-04T14:14:51;28.20;43.00
24426;DHT22;12611;44.446;26.000;2023-06-04T14:17:20;28.50;42.30
24426;DHT22;12611;44.446;26.000;2023-06-04T14:19:48;28.60;42.50
24426;DHT22;12611;44.446;26.000;2023-06-04T14:22:17;28.70;42.80
24426;DHT22;12611;44.446;26.000;2023-06-04T14:24:46;28.80;41.80
24426;DHT22;12611;44.446;26.000;2023-06-04T14:27:15;28.90;41.70
24426;DHT22;12611;44.446;26.000;2023-06-04T14:29:43;29.10;41.90
24426;DHT22;12611;44.446;26.000;2023-06-04T14:32:11;29.20;42.10
24426;DHT22;12611;44.446;26.000;2023-06-04T14:34:40;29.20;41.80
24426;DHT22;12611;44.446;26.000;2023-06-04T14:37:08;29.20;41.30
24426;DHT22;12611;44.446;26.000;2023-06-04T14:39:36;29.20;41.30
24426;DHT22;12611;44.446;26.000;2023-06-04T14:42:06;29.00;41.30
24426;DHT22;12611;44.446;26.000;2023-06-04T14:44:34;28.90;41.70
24426;DHT22;12611;44.446;26.000;2023-06-04T14:47:03;28.70;41.80
24426;DHT22;12611;44.446;26.000;2023-06-04T14:49:32;28.50;41.80
24426;DHT22;12611;44.446;26.000;2023-06-04T14:52:00;28.40;42.10
24426;DHT22;12611;44.446;26.000;2023-06-04T14:54:28;28.30;42.10
24426;DHT22;12611;44.446;26.000;2023-06-04T14:56:57;28.20;42.30
24426;DHT22;12611;44.446;26.000;2023-06-04T14:59:28;28.20;42.50
24426;DHT22;12611;44.446;26.000;2023-06-04T15:01:56;28.10;42.40
24426;DHT22;12611;44.446;26.000;2023-06-04T15:04:25;28.00;42.70
24426;DHT22;12611;44.446;26.000;2023-06-04T15:06:53;27.90;42.80
24426;DHT22;12611;44.446;26.000;2023-06-04T15:09:21;27.80;42.60
24426;DHT22;12611;44.446;26.000;2023-06-04T15:11:50;27.70;42.80
24426;DHT22;12611;44.446;26.000;2023-06-04T15:14:19;27.60;42.90
24426;DHT22;12611;44.446;26.000;2023-06-04T15:16:49;27.50;43.10
24426;DHT22;12611;44.446;26.000;2023-06-04T15:19:17;27.30;43.20
24426;DHT22;12611;44.446;26.000;2023-06-04T15:21:45;27.30;43.50
24426;DHT22;12611;44.446;26.000;2023-06-04T15:24:14;27.20;43.60
24426;DHT22;12611;44.446;26.000;2023-06-04T15:26:42;27.00;43.60
24426;DHT22;12611;44.446;26.000;2023-06-04T15:29:11;27.00;43.70